sensor_id;sensor_type;location;lat;lon;timestamp;temperature;humidity
3846;DHT22;1938;50.812;7.738;2024-03-25T00:01:28;4.00;99.90
3846;DHT22;1938;50.812;7.738;2024-03-25T00:03:54;4.00;99.90
3846;DHT22;1938;50.812;7.738;2024-03-25T00:06:19;4.00;99.90
3846;DHT22;1938;50.812;7.738;2024-03-25T00:08:46;4.00;99.90
3846;DHT22;1938;50.812;7.738;2024-03-25T00:11:12;4.00;99.90
3846;DHT22;1938;50.812;7.738;2024-03-25T00:13:38;3.90;99.90
3846;DHT22;1938;50.812;7.738;2024-03-25T00:16:04;3.80;99.90
3846;DHT22;1938;50.812;7.738;2024-03-25T00:18:30;3.80;99.90
3846;DHT22;1938;50.812;7.738;2024-03-25T00:20:57;3.80;99.90
3846;DHT22;1938;50.812;7.738;2024-03-25T00:23:23;3.90;99.90
3846;DHT22;1938;50.812;7.738;2024-03-25T00:25:49;3.80;99.90
3846;DHT22;1938;50.812;7.738;2024-03-25T00:28:14;3.70;99.90
3846;DHT22;1938;50.812;7.738;2024-03-25T00:30:40;3.80;99.90
3846;DHT22;1938;50.812;7.738;2024-03-25T00:33:05;3.80;99.90
3846;DHT22;1938;50.812;7.738;2024-03-25T00:35:32;3.70;99.90
3846;DHT22;1938;50.812;7.738;2024-03-25T00:37:58;3.70;99.90
3846;DHT22;1938;50.812;7.738;2024-03-25T00:40:24;3.70;99.90
3846;DHT22;1938;50.812;7.738;2024-03-25T00:42:50;3.70;99.90
3846;DHT22;1938;50.812;7.738;2024-03-25T00:45:15;3.80;99.90
3846;DHT22;1938;50.812;7.738;2024-03-25T00:47:41;3.80;99.90
3846;DHT22;1938;50.812;7.738;2024-03-25T00:50:07;3.80;99.90
3846;DHT22;1938;50.812;7.738;2024-03-25T00:52:34;3.80;99.90
3846;DHT22;1938;50.812;7.738;2024-03-25T00:55:00;3.70;99.90
3846;DHT22;1938;50.812;7.738;2024-03-25T00:57:25;3.80;99.90
3846;DHT22;1938;50.812;7.738;2024-03-25T00:59:51;3.80;99.90
3846;DHT22;1938;50.812;7.738;2024-03-25T01:02:16;3.80;99.90
3846;DHT22;1938;50.812;7.738;2024-03-25T01:04:42;3.70;99.90
3846;DHT22;1938;50.812;7.738;2024-03-25T01:07:08;3.70;99.90
3846;DHT22;1938;50.812;7.738;2024-03-25T01:09:34;3.70;99.90
3846;DHT22;1938;50.812;7.738;2024-03-25T01:12:01;3.70;99.90
3846;DHT22;1938;50.812;7.738;2024-03-25T01:14:26;3.70;99.90
3846;DHT22;1938;50.812;7.738;2024-03-25T01:16:52;3.70;99.90
3846;DHT22;1938;50.812;7.738;2024-03-25T01:19:18;3.60;99.90
3846;DHT22;1938;50.812;7.738;2024-03-25T01:21:43;3.60;99.90
3846;DHT22;1938;50.812;7.738;2024-03-25T01:24:10;3.60;99.90
3846;DHT22;1938;50.812;7.738;2024-03-25T01:26:36;3.60;99.90
3846;DHT22;1938;50.812;7.738;2024-03-25T01:29:02;3.50;99.90
3846;DHT22;1938;50.812;7.738;2024-03-25T01:31:27;3.50;99.90
3846;DHT22;1938;50.812;7.738;2024-03-25T01:33:53;3.50;99.90
3846;DHT22;1938;50.812;7.738;2024-03-25T01:36:18;3.50;99.90
3846;DHT22;1938;50.812;7.738;2024-03-25T01:38:44;3.50;99.90
3846;DHT22;1938;50.812;7.738;2024-03-25T01:41:11;3.50;99.90
3846;DHT22;1938;50.812;7.738;2024-03-25T01:43:37;3.50;99.90
3846;DHT22;1938;50.812;7.738;2024-03-25T01:46:04;3.50;99.90
3846;DHT22;1938;50.812;7.738;2024-03-25T01:48:30;3.50;99.90
3846;DHT22;1938;50.812;7.738;2024-03-25T01:50:56;3.50;99.90
3846;DHT22;1938;50.812;7.738;2024-03-25T01:53:23;3.50;99.90
3846;DHT22;1938;50.812;7.738;2024-03-25T01:55:50;3.50;99.90
3846;DHT22;1938;50.812;7.738;2024-03-25T01:58:18;3.50;99.90
3846;DHT22;1938;50.812;7.738;2024-03-25T02:00:45;3.50;99.90
3846;DHT22;1938;50.812;7.738;2024-03-25T02:03:11;3.60;99.90
3846;DHT22;1938;50.812;7.738;2024-03-25T02:05:36;3.50;99.90
3846;DHT22;1938;50.812;7.738;2024-03-25T02:08:03;3.50;99.90
3846;DHT22;1938;50.812;7.738;2024-03-25T02:10:30;3.60;99.90
3846;DHT22;1938;50.812;7.738;2024-03-25T02:12:57;3.60;99.90
3846;DHT22;1938;50.812;7.738;2024-03-25T02:15:22;3.60;99.90
3846;DHT22;1938;50.812;7.738;2024-03-25T02:17:48;3.60;99.90
3846;DHT22;1938;50.812;7.738;2024-03-25T02:20:13;3.60;99.90
3846;DHT22;1938;50.812;7.738;2024-03-25T02:22:41;3.60;99.90
3846;DHT22;1938;50.812;7.738;2024-03-25T02:25:08;3.60;99.90
3846;DHT22;1938;50.812;7.738;2024-03-25T02:27:36;3.60;99.90
3846;DHT22;1938;50.812;7.738;2024-03-25T02:30:09;3.60;99.90
3846;DHT22;1938;50.812;7.738;2024-03-25T02:32:38;3.60;99.90
3846;DHT22;1938;50.812;7.738;2024-03-25T02:35:07;3.70;99.90
3846;DHT22;1938;50.812;7.738;2024-03-25T02:37:36;3.70;99.90
3846;DHT22;1938;50.812;7.738;2024-03-25T02:40:02;3.70;99.90
3846;DHT22;1938;50.812;7.738;2024-03-25T02:42:31;3.70;99.90
3846;DHT22;1938;50.812;7.738;2024-03-25T02:44:57;3.70;99.90
3846;DHT22;1938;50.812;7.738;2024-03-25T02:47:22;3.70;99.90
3846;DHT22;1938;50.812;7.738;2024-03-25T02:49:48;3.60;99.90
3846;DHT22;1938;50.812;7.738;2024-03-25T02:52:14;3.60;99.90
3846;DHT22;1938;50.812;7.738;2024-03-25T02:54:40;3.50;99.90
3846;DHT22;1938;50.812;7.738;2024-03-25T02:57:05;3.50;99.90
3846;DHT22;1938;50.812;7.738;2024-03-25T02:59:31;3.50;99.90
3846;DHT22;1938;50.812;7.738;2024-03-25T03:01:56;3.50;99.90
3846;DHT22;1938;50.812;7.738;2024-03-25T03:04:23;3.40;99.90
3846;DHT22;1938;50.812;7.738;2024-03-25T03:06:48;3.40;99.90
3846;DHT22;1938;50.812;7.738;2024-03-25T03:09:14;3.40;99.90
3846;DHT22;1938;50.812;7.738;2024-03-25T03:11:41;3.30;99.90
3846;DHT22;1938;50.812;7.738;2024-03-25T03:14:06;3.30;99.90
3846;DHT22;1938;50.812;7.738;2024-03-25T03:16:32;3.30;99.90
3846;DHT22;1938;50.812;7.738;2024-03-25T03:18:57;3.40;99.90
3846;DHT22;1938;50.812;7.738;2024-03-25T03:21:23;3.40;99.90
3846;DHT22;1938;50.812;7.738;2024-03-25T03:23:48;3.50;99.90
3846;DHT22;1938;50.812;7.738;2024-03-25T03:26:14;3.60;99.90
3846;DHT22;1938;50.812;7.738;2024-03-25T03:28:40;3.70;99.90
3846;DHT22;1938;50.812;7.738;2024-03-25T03:31:06;3.90;99.90
3846;DHT22;1938;50.812;7.738;2024-03-25T03:33:32;4.00;99.90
3846;DHT22;1938;50.812;7.738;2024-03-25T03:35:57;4.00;99.90
3846;DHT22;1938;50.812;7.738;2024-03-25T03:38:24;4.10;99.90
3846;DHT22;1938;50.812;7.738;2024-03-25T03:41:00;4.20;99.90
3846;DHT22;1938;50.812;7.738;2024-03-25T03:43:25;4.20;99.90
3846;DHT22;1938;50.812;7.738;2024-03-25T03:45:51;4.30;99.90
3846;DHT22;1938;50.812;7.738;2024-03-25T03:48:17;4.20;99.90
3846;DHT22;1938;50.812;7.738;2024-03-25T03:50:44;3.90;99.90
3846;DHT22;1938;50.812;7.738;2024-03-25T03:53:09;3.80;99.90
3846;DHT22;1938;50.812;7.738;2024-03-25T03:55:36;3.70;99.90
3846;DHT22;1938;50.812;7.738;2024-03-25T03:58:01;3.60;99.90
3846;DHT22;1938;50.812;7.738;2024-03-25T04:00:27;3.50;99.90
3846;DHT22;1938;50.812;7.738;2024-03-25T04:02:53;3.50;99.90
3846;DHT22;1938;50.812;7.738;2024-03-25T04:05:18;3.50;99.90
3846;DHT22;1938;50.812;7.738;2024-03-25T04:07:44;3.50;99.90
3846;DHT22;1938;50.812;7.738;2024-03-25T04:10:10;3.40;99.90
3846;DHT22;1938;50.812;7.738;2024-03-25T04:12:36;3.40;99.90
3846;DHT22;1938;50.812;7.738;2024-03-25T04:15:03;3.40;99.90
3846;DHT22;1938;50.812;7.738;2024-03-25T04:17:29;3.40;99.90
3846;DHT22;1938;50.812;7.738;2024-03-25T04:19:54;3.40;99.90
3846;DHT22;1938;50.812;7.738;2024-03-25T04:22:20;3.40;99.90
3846;DHT22;1938;50.812;7.738;2024-03-25T04:24:45;3.40;99.90
3846;DHT22;1938;50.812;7.738;2024-03-25T04:27:11;3.40;99.90
3846;DHT22;1938;50.812;7.738;2024-03-25T04:29:37;3.40;99.90
3846;DHT22;1938;50.812;7.738;2024-03-25T04:32:03;3.40;99.90
3846;DHT22;1938;50.812;7.738;2024-03-25T04:34:30;3.40;99.90
3846;DHT22;1938;50.812;7.738;2024-03-25T04:36:56;3.30;99.90
3846;DHT22;1938;50.812;7.738;2024-03-25T04:39:21;3.40;99.90
3846;DHT22;1938;50.812;7.738;2024-03-25T04:41:47;3.30;99.90
3846;DHT22;1938;50.812;7.738;2024-03-25T04:44:13;3.30;99.90
3846;DHT22;1938;50.812;7.738;2024-03-25T04:46:39;3.30;99.90
3846;DHT22;1938;50.812;7.738;2024-03-25T04:49:05;3.40;99.90
3846;DHT22;1938;50.812;7.738;2024-03-25T04:51:30;3.30;99.90
3846;DHT22;1938;50.812;7.738;2024-03-25T04:53:57;3.20;99.90
3846;DHT22;1938;50.812;7.738;2024-03-25T04:56:22;3.20;99.90
3846;DHT22;1938;50.812;7.738;2024-03-25T04:58:48;3.20;99.90
3846;DHT22;1938;50.812;7.738;2024-03-25T05:01:13;3.30;99.90
3846;DHT22;1938;50.812;7.738;2024-03-25T05:03:39;3.30;99.90
3846;DHT22;1938;50.812;7.738;2024-03-25T05:06:05;3.20;99.90
3846;DHT22;1938;50.812;7.738;2024-03-25T05:08:31;3.10;99.90
3846;DHT22;1938;50.812;7.738;2024-03-25T05:10:56;3.10;99.90
3846;DHT22;1938;50.812;7.738;2024-03-25T05:13:23;3.10;99.90
3846;DHT22;1938;50.812;7.738;2024-03-25T05:15:52;3.10;99.90
3846;DHT22;1938;50.812;7.738;2024-03-25T05:18:18;3.00;99.90
3846;DHT22;1938;50.812;7.738;2024-03-25T05:20:45;3.00;99.90
3846;DHT22;1938;50.812;7.738;2024-03-25T05:23:10;3.20;99.90
3846;DHT22;1938;50.812;7.738;2024-03-25T05:25:36;3.50;99.90
3846;DHT22;1938;50.812;7.738;2024-03-25T05:28:02;3.70;99.90
3846;DHT22;1938;50.812;7.738;2024-03-25T05:30:29;3.90;99.90
3846;DHT22;1938;50.812;7.738;2024-03-25T05:32:54;4.10;99.90
3846;DHT22;1938;50.812;7.738;2024-03-25T05:35:20;4.10;99.90
3846;DHT22;1938;50.812;7.738;2024-03-25T05:37:46;4.20;99.90
3846;DHT22;1938;50.812;7.738;2024-03-25T05:40:12;3.80;99.90
3846;DHT22;1938;50.812;7.738;2024-03-25T05:42:38;3.80;99.90
3846;DHT22;1938;50.812;7.738;2024-03-25T05:45:04;3.80;99.90
3846;DHT22;1938;50.812;7.738;2024-03-25T05:47:29;3.80;99.90
3846;DHT22;1938;50.812;7.738;2024-03-25T05:49:55;3.80;99.90
3846;DHT22;1938;50.812;7.738;2024-03-25T05:52:20;3.90;99.90
3846;DHT22;1938;50.812;7.738;2024-03-25T05:54:46;3.80;99.90
3846;DHT22;1938;50.812;7.738;2024-03-25T05:57:11;3.90;99.90
3846;DHT22;1938;50.812;7.738;2024-03-25T05:59:37;3.90;99.90
3846;DHT22;1938;50.812;7.738;2024-03-25T06:02:02;3.90;99.90
3846;DHT22;1938;50.812;7.738;2024-03-25T06:04:28;4.10;99.90
3846;DHT22;1938;50.812;7.738;2024-03-25T06:06:53;3.90;99.90
3846;DHT22;1938;50.812;7.738;2024-03-25T06:09:19;3.80;99.90
3846;DHT22;1938;50.812;7.738;2024-03-25T06:11:44;3.60;99.90
3846;DHT22;1938;50.812;7.738;2024-03-25T06:14:11;4.90;99.90
3846;DHT22;1938;50.812;7.738;2024-03-25T06:16:36;5.10;99.90
3846;DHT22;1938;50.812;7.738;2024-03-25T06:19:02;4.20;99.90
3846;DHT22;1938;50.812;7.738;2024-03-25T06:21:27;4.00;99.90
3846;DHT22;1938;50.812;7.738;2024-03-25T06:23:54;3.80;99.90
3846;DHT22;1938;50.812;7.738;2024-03-25T06:26:19;3.70;99.90
3846;DHT22;1938;50.812;7.738;2024-03-25T06:28:45;3.50;99.90
3846;DHT22;1938;50.812;7.738;2024-03-25T06:31:12;3.60;99.90
3846;DHT22;1938;50.812;7.738;2024-03-25T06:33:56;3.50;99.90
3846;DHT22;1938;50.812;7.738;2024-03-25T06:36:41;3.50;99.90
3846;DHT22;1938;50.812;7.738;2024-03-25T06:39:07;3.50;99.90
3846;DHT22;1938;50.812;7.738;2024-03-25T06:41:32;3.50;99.90
3846;DHT22;1938;50.812;7.738;2024-03-25T06:43:58;3.40;99.90
3846;DHT22;1938;50.812;7.738;2024-03-25T06:46:23;3.50;99.90
3846;DHT22;1938;50.812;7.738;2024-03-25T06:48:49;3.50;99.90
3846;DHT22;1938;50.812;7.738;2024-03-25T06:51:14;3.50;99.90
3846;DHT22;1938;50.812;7.738;2024-03-25T06:53:40;3.90;99.90
3846;DHT22;1938;50.812;7.738;2024-03-25T06:56:06;4.60;99.90
3846;DHT22;1938;50.812;7.738;2024-03-25T06:58:32;5.40;99.90
3846;DHT22;1938;50.812;7.738;2024-03-25T07:01:07;6.10;99.90
3846;DHT22;1938;50.812;7.738;2024-03-25T07:03:33;6.90;99.90
3846;DHT22;1938;50.812;7.738;2024-03-25T07:06:00;7.60;1.00
3846;DHT22;1938;50.812;7.738;2024-03-25T07:08:26;8.30;99.90
3846;DHT22;1938;50.812;7.738;2024-03-25T07:10:52;9.00;1.00
3846;DHT22;1938;50.812;7.738;2024-03-25T07:13:18;9.30;22.40
3846;DHT22;1938;50.812;7.738;2024-03-25T07:15:45;9.30;99.90
3846;DHT22;1938;50.812;7.738;2024-03-25T07:18:11;9.20;81.10
3846;DHT22;1938;50.812;7.738;2024-03-25T07:20:38;9.00;24.10
3846;DHT22;1938;50.812;7.738;2024-03-25T07:23:04;9.00;1.00
3846;DHT22;1938;50.812;7.738;2024-03-25T07:25:30;9.10;1.00
3846;DHT22;1938;50.812;7.738;2024-03-25T07:27:55;9.30;1.00
3846;DHT22;1938;50.812;7.738;2024-03-25T07:30:21;9.60;1.00
3846;DHT22;1938;50.812;7.738;2024-03-25T07:32:56;9.70;99.90
3846;DHT22;1938;50.812;7.738;2024-03-25T07:35:22;9.60;99.90
3846;DHT22;1938;50.812;7.738;2024-03-25T07:37:49;9.70;99.90
3846;DHT22;1938;50.812;7.738;2024-03-25T07:40:18;10.20;99.90
3846;DHT22;1938;50.812;7.738;2024-03-25T07:42:44;10.60;99.90
3846;DHT22;1938;50.812;7.738;2024-03-25T07:45:10;10.70;99.90
3846;DHT22;1938;50.812;7.738;2024-03-25T07:47:36;10.80;99.90
3846;DHT22;1938;50.812;7.738;2024-03-25T07:50:01;10.70;99.90
3846;DHT22;1938;50.812;7.738;2024-03-25T07:52:27;10.50;97.00
3846;DHT22;1938;50.812;7.738;2024-03-25T07:54:56;10.60;62.10
3846;DHT22;1938;50.812;7.738;2024-03-25T07:57:22;10.70;78.00
3846;DHT22;1938;50.812;7.738;2024-03-25T07:59:47;10.80;39.00
3846;DHT22;1938;50.812;7.738;2024-03-25T08:02:15;10.90;33.20
3846;DHT22;1938;50.812;7.738;2024-03-25T08:04:41;11.30;42.80
3846;DHT22;1938;50.812;7.738;2024-03-25T08:07:07;11.50;27.60
3846;DHT22;1938;50.812;7.738;2024-03-25T08:09:32;8.80;1.00
3846;DHT22;1938;50.812;7.738;2024-03-25T08:11:58;7.50;55.30
3846;DHT22;1938;50.812;7.738;2024-03-25T08:14:24;6.90;99.90
3846;DHT22;1938;50.812;7.738;2024-03-25T08:16:49;7.70;99.90
3846;DHT22;1938;50.812;7.738;2024-03-25T08:19:15;7.50;99.90
3846;DHT22;1938;50.812;7.738;2024-03-25T08:21:41;6.80;99.90
3846;DHT22;1938;50.812;7.738;2024-03-25T08:24:06;7.50;99.90
3846;DHT22;1938;50.812;7.738;2024-03-25T08:26:32;7.90;99.90
3846;DHT22;1938;50.812;7.738;2024-03-25T08:28:58;7.50;99.90
3846;DHT22;1938;50.812;7.738;2024-03-25T08:31:23;7.20;99.90
3846;DHT22;1938;50.812;7.738;2024-03-25T08:33:49;7.20;95.20
3846;DHT22;1938;50.812;7.738;2024-03-25T08:36:14;6.80;99.90
3846;DHT22;1938;50.812;7.738;2024-03-25T08:38:40;6.30;99.90
3846;DHT22;1938;50.812;7.738;2024-03-25T08:41:05;5.80;99.90
3846;DHT22;1938;50.812;7.738;2024-03-25T08:43:32;5.70;1.00
3846;DHT22;1938;50.812;7.738;2024-03-25T08:45:58;5.70;1.00
3846;DHT22;1938;50.812;7.738;2024-03-25T08:48:23;5.90;1.00
3846;DHT22;1938;50.812;7.738;2024-03-25T08:50:49;6.00;99.90
3846;DHT22;1938;50.812;7.738;2024-03-25T08:53:15;6.70;1.00
3846;DHT22;1938;50.812;7.738;2024-03-25T08:55:46;7.10;99.90
3846;DHT22;1938;50.812;7.738;2024-03-25T08:58:13;6.90;99.90
3846;DHT22;1938;50.812;7.738;2024-03-25T09:00:40;6.40;99.90
3846;DHT22;1938;50.812;7.738;2024-03-25T09:03:05;6.60;99.90
3846;DHT22;1938;50.812;7.738;2024-03-25T09:05:31;6.70;99.90
3846;DHT22;1938;50.812;7.738;2024-03-25T09:07:56;6.60;99.90
3846;DHT22;1938;50.812;7.738;2024-03-25T09:10:24;6.60;99.90
3846;DHT22;1938;50.812;7.738;2024-03-25T09:13:09;6.50;77.20
3846;DHT22;1938;50.812;7.738;2024-03-25T09:15:34;6.40;55.70
3846;DHT22;1938;50.812;7.738;2024-03-25T09:18:00;6.40;33.70
3846;DHT22;1938;50.812;7.738;2024-03-25T09:20:26;6.50;12.40
3846;DHT22;1938;50.812;7.738;2024-03-25T09:22:51;6.50;99.90
3846;DHT22;1938;50.812;7.738;2024-03-25T09:25:18;6.60;97.80
3846;DHT22;1938;50.812;7.738;2024-03-25T09:27:50;6.50;99.90
3846;DHT22;1938;50.812;7.738;2024-03-25T09:30:16;6.60;72.30
3846;DHT22;1938;50.812;7.738;2024-03-25T09:32:43;6.50;39.70
3846;DHT22;1938;50.812;7.738;2024-03-25T09:35:09;6.40;13.20
3846;DHT22;1938;50.812;7.738;2024-03-25T09:37:35;6.50;13.20
3846;DHT22;1938;50.812;7.738;2024-03-25T09:40:01;6.60;28.80
3846;DHT22;1938;50.812;7.738;2024-03-25T09:42:41;6.30;1.00
3846;DHT22;1938;50.812;7.738;2024-03-25T09:45:08;6.50;99.90
3846;DHT22;1938;50.812;7.738;2024-03-25T09:47:35;6.70;99.90
3846;DHT22;1938;50.812;7.738;2024-03-25T09:50:02;6.70;31.20
3846;DHT22;1938;50.812;7.738;2024-03-25T09:52:29;6.90;30.00
3846;DHT22;1938;50.812;7.738;2024-03-25T09:54:55;7.20;8.90
3846;DHT22;1938;50.812;7.738;2024-03-25T09:57:21;7.20;1.00
3846;DHT22;1938;50.812;7.738;2024-03-25T09:59:48;7.70;1.00
3846;DHT22;1938;50.812;7.738;2024-03-25T10:02:14;8.00;1.00
3846;DHT22;1938;50.812;7.738;2024-03-25T10:04:45;7.80;1.00
3846;DHT22;1938;50.812;7.738;2024-03-25T10:07:22;7.60;1.00
3846;DHT22;1938;50.812;7.738;2024-03-25T10:09:49;7.60;1.00
3846;DHT22;1938;50.812;7.738;2024-03-25T10:12:15;7.20;1.00
3846;DHT22;1938;50.812;7.738;2024-03-25T10:14:41;7.40;1.00
3846;DHT22;1938;50.812;7.738;2024-03-25T10:17:06;7.60;1.00
3846;DHT22;1938;50.812;7.738;2024-03-25T10:19:33;8.20;1.00
3846;DHT22;1938;50.812;7.738;2024-03-25T10:22:06;8.40;1.00
3846;DHT22;1938;50.812;7.738;2024-03-25T10:24:42;9.30;1.00
3846;DHT22;1938;50.812;7.738;2024-03-25T10:27:18;10.10;1.00
3846;DHT22;1938;50.812;7.738;2024-03-25T10:29:51;11.00;1.00
3846;DHT22;1938;50.812;7.738;2024-03-25T10:32:17;11.80;99.90
3846;DHT22;1938;50.812;7.738;2024-03-25T10:34:43;12.60;99.90
3846;DHT22;1938;50.812;7.738;2024-03-25T10:37:10;12.80;99.90
3846;DHT22;1938;50.812;7.738;2024-03-25T10:39:40;13.20;99.90
3846;DHT22;1938;50.812;7.738;2024-03-25T10:42:11;13.60;99.90
3846;DHT22;1938;50.812;7.738;2024-03-25T10:44:38;13.90;99.90
3846;DHT22;1938;50.812;7.738;2024-03-25T10:47:05;14.20;99.90
3846;DHT22;1938;50.812;7.738;2024-03-25T10:49:44;14.30;99.90
3846;DHT22;1938;50.812;7.738;2024-03-25T10:52:13;14.40;99.90
3846;DHT22;1938;50.812;7.738;2024-03-25T10:54:39;14.30;99.90
3846;DHT22;1938;50.812;7.738;2024-03-25T10:57:06;14.40;99.90
3846;DHT22;1938;50.812;7.738;2024-03-25T10:59:32;14.40;99.90
3846;DHT22;1938;50.812;7.738;2024-03-25T11:02:03;14.40;99.90
3846;DHT22;1938;50.812;7.738;2024-03-25T11:04:30;14.40;99.90
3846;DHT22;1938;50.812;7.738;2024-03-25T11:07:10;14.30;99.90
3846;DHT22;1938;50.812;7.738;2024-03-25T11:09:39;14.10;99.90
3846;DHT22;1938;50.812;7.738;2024-03-25T11:12:05;14.10;99.90
3846;DHT22;1938;50.812;7.738;2024-03-25T11:14:31;14.30;99.90
3846;DHT22;1938;50.812;7.738;2024-03-25T11:17:01;14.30;99.90
3846;DHT22;1938;50.812;7.738;2024-03-25T11:19:28;14.40;99.90
3846;DHT22;1938;50.812;7.738;2024-03-25T11:21:54;14.40;99.90
3846;DHT22;1938;50.812;7.738;2024-03-25T11:24:31;14.40;99.90
3846;DHT22;1938;50.812;7.738;2024-03-25T11:26:56;14.10;99.90
3846;DHT22;1938;50.812;7.738;2024-03-25T11:29:22;14.00;99.90
3846;DHT22;1938;50.812;7.738;2024-03-25T11:31:49;14.00;99.90
3846;DHT22;1938;50.812;7.738;2024-03-25T11:34:15;14.00;99.90
3846;DHT22;1938;50.812;7.738;2024-03-25T11:36:41;14.00;99.90
3846;DHT22;1938;50.812;7.738;2024-03-25T11:39:06;12.40;84.20
3846;DHT22;1938;50.812;7.738;2024-03-25T11:41:42;12.10;55.20
3846;DHT22;1938;50.812;7.738;2024-03-25T11:44:08;11.30;43.00
3846;DHT22;1938;50.812;7.738;2024-03-25T11:46:37;10.60;28.60
3846;DHT22;1938;50.812;7.738;2024-03-25T11:49:06;10.00;23.00
3846;DHT22;1938;50.812;7.738;2024-03-25T11:51:33;9.70;18.20
3846;DHT22;1938;50.812;7.738;2024-03-25T11:53:59;9.30;14.50
3846;DHT22;1938;50.812;7.738;2024-03-25T11:56:25;9.20;16.10
3846;DHT22;1938;50.812;7.738;2024-03-25T11:58:51;9.40;21.60
3846;DHT22;1938;50.812;7.738;2024-03-25T12:01:17;9.30;21.50
3846;DHT22;1938;50.812;7.738;2024-03-25T12:03:42;9.20;16.70
3846;DHT22;1938;50.812;7.738;2024-03-25T12:06:08;9.60;35.80
3846;DHT22;1938;50.812;7.738;2024-03-25T12:08:33;10.00;32.80
3846;DHT22;1938;50.812;7.738;2024-03-25T12:11:02;9.90;26.00
3846;DHT22;1938;50.812;7.738;2024-03-25T12:13:44;10.00;18.30
3846;DHT22;1938;50.812;7.738;2024-03-25T12:16:10;9.80;10.00
3846;DHT22;1938;50.812;7.738;2024-03-25T12:18:36;9.40;4.40
3846;DHT22;1938;50.812;7.738;2024-03-25T12:21:04;9.80;8.20
3846;DHT22;1938;50.812;7.738;2024-03-25T12:23:31;9.60;5.30
3846;DHT22;1938;50.812;7.738;2024-03-25T12:25:59;9.60;1.30
3846;DHT22;1938;50.812;7.738;2024-03-25T12:28:24;9.40;1.90
3846;DHT22;1938;50.812;7.738;2024-03-25T12:30:54;9.20;1.00
3846;DHT22;1938;50.812;7.738;2024-03-25T12:33:23;9.10;1.00
3846;DHT22;1938;50.812;7.738;2024-03-25T12:35:49;8.80;1.00
3846;DHT22;1938;50.812;7.738;2024-03-25T12:38:22;9.10;1.00
3846;DHT22;1938;50.812;7.738;2024-03-25T12:40:48;9.00;1.00
3846;DHT22;1938;50.812;7.738;2024-03-25T12:43:17;9.30;1.00
3846;DHT22;1938;50.812;7.738;2024-03-25T12:45:43;9.40;1.00
3846;DHT22;1938;50.812;7.738;2024-03-25T12:48:09;9.40;1.00
3846;DHT22;1938;50.812;7.738;2024-03-25T12:50:35;9.60;1.00
3846;DHT22;1938;50.812;7.738;2024-03-25T12:53:01;9.90;1.00
3846;DHT22;1938;50.812;7.738;2024-03-25T12:55:29;10.20;1.00
3846;DHT22;1938;50.812;7.738;2024-03-25T12:57:54;10.50;1.00
3846;DHT22;1938;50.812;7.738;2024-03-25T13:00:20;10.80;1.00
3846;DHT22;1938;50.812;7.738;2024-03-25T13:02:46;11.00;1.00
3846;DHT22;1938;50.812;7.738;2024-03-25T13:05:11;10.70;1.00
3846;DHT22;1938;50.812;7.738;2024-03-25T13:07:37;10.60;1.00
3846;DHT22;1938;50.812;7.738;2024-03-25T13:10:02;10.50;1.00
3846;DHT22;1938;50.812;7.738;2024-03-25T13:12:30;10.60;1.00
3846;DHT22;1938;50.812;7.738;2024-03-25T13:14:56;10.30;1.00
3846;DHT22;1938;50.812;7.738;2024-03-25T13:17:21;10.40;1.00
3846;DHT22;1938;50.812;7.738;2024-03-25T13:19:47;10.40;1.00
3846;DHT22;1938;50.812;7.738;2024-03-25T13:22:12;10.70;1.00
3846;DHT22;1938;50.812;7.738;2024-03-25T13:24:38;10.70;1.00
3846;DHT22;1938;50.812;7.738;2024-03-25T13:27:03;10.60;1.00
3846;DHT22;1938;50.812;7.738;2024-03-25T13:29:29;10.70;1.00
3846;DHT22;1938;50.812;7.738;2024-03-25T13:31:55;10.70;1.00
3846;DHT22;1938;50.812;7.738;2024-03-25T13:34:21;10.60;1.00
3846;DHT22;1938;50.812;7.738;2024-03-25T13:36:46;10.40;1.00
3846;DHT22;1938;50.812;7.738;2024-03-25T13:39:12;10.60;1.00
3846;DHT22;1938;50.812;7.738;2024-03-25T13:41:37;10.50;1.00
3846;DHT22;1938;50.812;7.738;2024-03-25T13:44:03;10.80;1.00
3846;DHT22;1938;50.812;7.738;2024-03-25T13:46:30;10.90;1.00
3846;DHT22;1938;50.812;7.738;2024-03-25T13:48:55;11.00;1.00
3846;DHT22;1938;50.812;7.738;2024-03-25T13:51:21;11.00;1.00
3846;DHT22;1938;50.812;7.738;2024-03-25T13:53:46;11.00;1.00
3846;DHT22;1938;50.812;7.738;2024-03-25T13:56:12;10.90;1.00
3846;DHT22;1938;50.812;7.738;2024-03-25T13:58:37;10.90;1.00
3846;DHT22;1938;50.812;7.738;2024-03-25T14:01:03;11.00;1.00
3846;DHT22;1938;50.812;7.738;2024-03-25T14:03:28;10.70;1.00
3846;DHT22;1938;50.812;7.738;2024-03-25T14:05:54;10.30;1.00
3846;DHT22;1938;50.812;7.738;2024-03-25T14:08:19;10.20;1.00
3846;DHT22;1938;50.812;7.738;2024-03-25T14:10:45;10.30;1.00
3846;DHT22;1938;50.812;7.738;2024-03-25T14:13:12;10.10;1.00
3846;DHT22;1938;50.812;7.738;2024-03-25T14:15:37;10.10;1.00
3846;DHT22;1938;50.812;7.738;2024-03-25T14:18:03;9.90;1.00
3846;DHT22;1938;50.812;7.738;2024-03-25T14:20:28;10.10;1.00
3846;DHT22;1938;50.812;7.738;2024-03-25T14:22:54;10.30;1.00
3846;DHT22;1938;50.812;7.738;2024-03-25T14:25:19;10.40;1.00
3846;DHT22;1938;50.812;7.738;2024-03-25T14:27:45;10.50;1.00
3846;DHT22;1938;50.812;7.738;2024-03-25T14:30:11;10.50;1.00
3846;DHT22;1938;50.812;7.738;2024-03-25T14:32:37;10.50;1.00
3846;DHT22;1938;50.812;7.738;2024-03-25T14:35:05;10.10;1.00
3846;DHT22;1938;50.812;7.738;2024-03-25T14:37:32;10.10;1.00
3846;DHT22;1938;50.812;7.738;2024-03-25T14:39:58;10.10;1.00
3846;DHT22;1938;50.812;7.738;2024-03-25T14:42:24;10.00;1.00
3846;DHT22;1938;50.812;7.738;2024-03-25T14:44:49;10.20;1.00
3846;DHT22;1938;50.812;7.738;2024-03-25T14:47:15;10.20;1.00
3846;DHT22;1938;50.812;7.738;2024-03-25T14:49:41;10.20;1.00
3846;DHT22;1938;50.812;7.738;2024-03-25T14:52:06;10.10;1.00
3846;DHT22;1938;50.812;7.738;2024-03-25T14:54:33;10.20;1.00
3846;DHT22;1938;50.812;7.738;2024-03-25T14:57:00;10.10;1.00
3846;DHT22;1938;50.812;7.738;2024-03-25T14:59:26;10.10;1.00
3846;DHT22;1938;50.812;7.738;2024-03-25T15:01:52;10.30;1.00
3846;DHT22;1938;50.812;7.738;2024-03-25T15:04:17;10.30;1.00
3846;DHT22;1938;50.812;7.738;2024-03-25T15:06:43;10.40;1.00
3846;DHT22;1938;50.812;7.738;2024-03-25T15:09:08;10.20;1.00
3846;DHT22;1938;50.812;7.738;2024-03-25T15:11:34;10.30;1.00
3846;DHT22;1938;50.812;7.738;2024-03-25T15:14:00;10.30;1.00
3846;DHT22;1938;50.812;7.738;2024-03-25T15:16:27;10.20;1.00
3846;DHT22;1938;50.812;7.738;2024-03-25T15:18:53;10.20;1.00
3846;DHT22;1938;50.812;7.738;2024-03-25T15:21:19;10.30;1.00
3846;DHT22;1938;50.812;7.738;2024-03-25T15:23:44;10.30;1.00
3846;DHT22;1938;50.812;7.738;2024-03-25T15:26:10;10.30;1.00
3846;DHT22;1938;50.812;7.738;2024-03-25T15:28:35;10.30;1.00
3846;DHT22;1938;50.812;7.738;2024-03-25T15:31:01;10.40;1.00
3846;DHT22;1938;50.812;7.738;2024-03-25T15:33:27;10.40;1.00
3846;DHT22;1938;50.812;7.738;2024-03-25T15:35:53;10.50;1.00
3846;DHT22;1938;50.812;7.738;2024-03-25T15:38:18;10.30;1.00
3846;DHT22;1938;50.812;7.738;2024-03-25T15:40:44;10.10;1.00
3846;DHT22;1938;50.812;7.738;2024-03-25T15:43:16;10.10;1.00
3846;DHT22;1938;50.812;7.738;2024-03-25T15:45:42;10.20;1.00
3846;DHT22;1938;50.812;7.738;2024-03-25T15:48:07;10.20;1.00
3846;DHT22;1938;50.812;7.738;2024-03-25T15:50:35;10.20;1.00
3846;DHT22;1938;50.812;7.738;2024-03-25T15:53:00;10.20;1.00
3846;DHT22;1938;50.812;7.738;2024-03-25T15:55:26;10.10;1.00
3846;DHT22;1938;50.812;7.738;2024-03-25T15:57:53;10.10;1.00
3846;DHT22;1938;50.812;7.738;2024-03-25T16:00:19;10.10;1.00
3846;DHT22;1938;50.812;7.738;2024-03-25T16:02:44;10.10;1.00
3846;DHT22;1938;50.812;7.738;2024-03-25T16:05:10;10.10;1.00
3846;DHT22;1938;50.812;7.738;2024-03-25T16:07:35;10.10;1.00
3846;DHT22;1938;50.812;7.738;2024-03-25T16:10:01;10.00;1.00
3846;DHT22;1938;50.812;7.738;2024-03-25T16:12:27;9.80;1.00